sensor_id;sensor_type;location;lat;lon;timestamp;P1;durP1;ratioP1;P2;durP2;ratioP2
11933;SDS011;6026;48.784;9.198;2024-02-04T00:00:34;0.40;;;0.40;;
11933;SDS011;6026;48.784;9.198;2024-02-04T00:02:59;0.50;;;0.50;;
11933;SDS011;6026;48.784;9.198;2024-02-04T00:05:25;0.60;;;0.60;;
11933;SDS011;6026;48.784;9.198;2024-02-04T00:07:50;0.60;;;0.60;;
11933;SDS011;6026;48.784;9.198;2024-02-04T00:10:16;0.30;;;0.30;;
11933;SDS011;6026;48.784;9.198;2024-02-04T00:12:43;0.40;;;0.40;;
11933;SDS011;6026;48.784;9.198;2024-02-04T00:15:09;0.50;;;0.50;;
11933;SDS011;6026;48.784;9.198;2024-02-04T00:17:34;0.70;;;0.70;;
11933;SDS011;6026;48.784;9.198;2024-02-04T00:20:00;0.67;;;0.67;;
11933;SDS011;6026;48.784;9.198;2024-02-04T00:22:27;0.33;;;0.33;;
11933;SDS011;6026;48.784;9.198;2024-02-04T00:24:53;0.47;;;0.47;;
11933;SDS011;6026;48.784;9.198;2024-02-04T00:27:19;0.50;;;0.50;;
11933;SDS011;6026;48.784;9.198;2024-02-04T00:29:44;0.50;;;0.50;;
11933;SDS011;6026;48.784;9.198;2024-02-04T00:32:10;1.67;;;1.67;;
11933;SDS011;6026;48.784;9.198;2024-02-04T00:34:36;0.50;;;0.50;;
11933;SDS011;6026;48.784;9.198;2024-02-04T00:37:01;0.50;;;0.50;;
11933;SDS011;6026;48.784;9.198;2024-02-04T00:39:27;0.47;;;0.47;;
11933;SDS011;6026;48.784;9.198;2024-02-04T00:41:53;0.30;;;0.30;;
11933;SDS011;6026;48.784;9.198;2024-02-04T00:44:18;0.40;;;0.40;;
11933;SDS011;6026;48.784;9.198;2024-02-04T00:46:44;0.30;;;0.30;;
11933;SDS011;6026;48.784;9.198;2024-02-04T00:49:09;0.47;;;0.47;;
11933;SDS011;6026;48.784;9.198;2024-02-04T00:51:35;0.50;;;0.50;;
11933;SDS011;6026;48.784;9.198;2024-02-04T00:54:01;0.30;;;0.30;;
11933;SDS011;6026;48.784;9.198;2024-02-04T00:56:26;0.60;;;0.60;;
11933;SDS011;6026;48.784;9.198;2024-02-04T00:58:52;0.50;;;0.50;;
11933;SDS011;6026;48.784;9.198;2024-02-04T01:01:18;0.50;;;0.50;;
11933;SDS011;6026;48.784;9.198;2024-02-04T01:03:44;0.30;;;0.30;;
11933;SDS011;6026;48.784;9.198;2024-02-04T01:06:10;0.60;;;0.60;;
11933;SDS011;6026;48.784;9.198;2024-02-04T01:08:36;0.40;;;0.40;;
11933;SDS011;6026;48.784;9.198;2024-02-04T01:11:02;0.47;;;0.47;;
11933;SDS011;6026;48.784;9.198;2024-02-04T01:13:30;0.40;;;0.40;;
11933;SDS011;6026;48.784;9.198;2024-02-04T01:15:55;0.30;;;0.30;;
11933;SDS011;6026;48.784;9.198;2024-02-04T01:18:21;0.40;;;0.40;;
11933;SDS011;6026;48.784;9.198;2024-02-04T01:20:46;0.50;;;0.50;;
11933;SDS011;6026;48.784;9.198;2024-02-04T01:23:12;0.60;;;0.60;;
11933;SDS011;6026;48.784;9.198;2024-02-04T01:25:38;0.30;;;0.30;;
11933;SDS011;6026;48.784;9.198;2024-02-04T01:28:03;0.60;;;0.60;;
11933;SDS011;6026;48.784;9.198;2024-02-04T01:30:29;0.47;;;0.47;;
11933;SDS011;6026;48.784;9.198;2024-02-04T01:32:56;0.33;;;0.33;;
11933;SDS011;6026;48.784;9.198;2024-02-04T01:35:22;0.60;;;0.60;;
11933;SDS011;6026;48.784;9.198;2024-02-04T01:37:47;0.47;;;0.47;;
11933;SDS011;6026;48.784;9.198;2024-02-04T01:40:15;0.57;;;0.57;;
11933;SDS011;6026;48.784;9.198;2024-02-04T01:42:41;0.30;;;0.30;;
11933;SDS011;6026;48.784;9.198;2024-02-04T01:45:06;0.40;;;0.40;;
11933;SDS011;6026;48.784;9.198;2024-02-04T01:47:32;0.40;;;0.40;;
11933;SDS011;6026;48.784;9.198;2024-02-04T01:49:58;0.30;;;0.30;;
11933;SDS011;6026;48.784;9.198;2024-02-04T01:52:24;0.30;;;0.30;;
11933;SDS011;6026;48.784;9.198;2024-02-04T01:54:50;0.30;;;0.30;;
11933;SDS011;6026;48.784;9.198;2024-02-04T01:57:18;0.30;;;0.30;;
11933;SDS011;6026;48.784;9.198;2024-02-04T01:59:43;0.60;;;0.60;;
11933;SDS011;6026;48.784;9.198;2024-02-04T02:02:10;0.47;;;0.47;;
11933;SDS011;6026;48.784;9.198;2024-02-04T02:04:36;0.20;;;0.20;;
11933;SDS011;6026;48.784;9.198;2024-02-04T02:07:01;0.30;;;0.30;;
11933;SDS011;6026;48.784;9.198;2024-02-04T02:09:27;0.40;;;0.40;;
11933;SDS011;6026;48.784;9.198;2024-02-04T02:11:57;0.37;;;0.37;;
11933;SDS011;6026;48.784;9.198;2024-02-04T02:14:41;0.43;;;0.43;;
11933;SDS011;6026;48.784;9.198;2024-02-04T02:17:10;0.50;;;0.50;;
11933;SDS011;6026;48.784;9.198;2024-02-04T02:19:47;0.50;;;0.50;;
11933;SDS011;6026;48.784;9.198;2024-02-04T02:24:53;0.40;;;0.40;;
11933;SDS011;6026;48.784;9.198;2024-02-04T02:27:22;0.40;;;0.40;;
11933;SDS011;6026;48.784;9.198;2024-02-04T02:29:47;0.50;;;0.50;;
11933;SDS011;6026;48.784;9.198;2024-02-04T02:32:13;0.30;;;0.30;;
11933;SDS011;6026;48.784;9.198;2024-02-04T02:34:39;0.40;;;0.40;;
11933;SDS011;6026;48.784;9.198;2024-02-04T02:37:27;0.50;;;0.50;;
11933;SDS011;6026;48.784;9.198;2024-02-04T02:42:36;0.50;;;0.50;;
11933;SDS011;6026;48.784;9.198;2024-02-04T02:45:03;0.47;;;0.47;;
11933;SDS011;6026;48.784;9.198;2024-02-04T02:47:31;0.50;;;0.50;;
11933;SDS011;6026;48.784;9.198;2024-02-04T02:49:58;0.50;;;0.50;;
11933;SDS011;6026;48.784;9.198;2024-02-04T02:52:25;0.30;;;0.30;;
11933;SDS011;6026;48.784;9.198;2024-02-04T02:54:51;0.40;;;0.40;;
11933;SDS011;6026;48.784;9.198;2024-02-04T02:57:16;0.30;;;0.30;;
11933;SDS011;6026;48.784;9.198;2024-02-04T02:59:42;0.40;;;0.40;;
11933;SDS011;6026;48.784;9.198;2024-02-04T03:02:08;0.60;;;0.60;;
11933;SDS011;6026;48.784;9.198;2024-02-04T03:04:33;0.30;;;0.30;;
11933;SDS011;6026;48.784;9.198;2024-02-04T03:06:59;0.50;;;0.50;;
11933;SDS011;6026;48.784;9.198;2024-02-04T03:09:24;0.40;;;0.40;;
11933;SDS011;6026;48.784;9.198;2024-02-04T03:11:50;0.30;;;0.30;;
11933;SDS011;6026;48.784;9.198;2024-02-04T03:14:16;0.40;;;0.40;;
11933;SDS011;6026;48.784;9.198;2024-02-04T03:16:45;0.30;;;0.30;;
11933;SDS011;6026;48.784;9.198;2024-02-04T03:19:10;0.30;;;0.30;;
11933;SDS011;6026;48.784;9.198;2024-02-04T03:21:36;0.40;;;0.40;;
11933;SDS011;6026;48.784;9.198;2024-02-04T03:24:02;0.50;;;0.50;;
11933;SDS011;6026;48.784;9.198;2024-02-04T03:26:27;0.40;;;0.40;;
11933;SDS011;6026;48.784;9.198;2024-02-04T03:28:53;0.30;;;0.30;;
11933;SDS011;6026;48.784;9.198;2024-02-04T03:31:22;0.23;;;0.23;;
11933;SDS011;6026;48.784;9.198;2024-02-04T03:33:48;0.40;;;0.40;;
11933;SDS011;6026;48.784;9.198;2024-02-04T03:36:19;0.30;;;0.30;;
11933;SDS011;6026;48.784;9.198;2024-02-04T03:38:46;0.33;;;0.33;;
11933;SDS011;6026;48.784;9.198;2024-02-04T03:41:11;0.47;;;0.47;;
11933;SDS011;6026;48.784;9.198;2024-02-04T03:43:37;0.30;;;0.30;;
11933;SDS011;6026;48.784;9.198;2024-02-04T03:46:02;0.47;;;0.47;;
11933;SDS011;6026;48.784;9.198;2024-02-04T03:48:28;0.40;;;0.40;;
11933;SDS011;6026;48.784;9.198;2024-02-04T03:50:54;0.30;;;0.30;;
11933;SDS011;6026;48.784;9.198;2024-02-04T03:53:19;0.50;;;0.50;;
11933;SDS011;6026;48.784;9.198;2024-02-04T03:55:47;0.17;;;0.17;;
11933;SDS011;6026;48.784;9.198;2024-02-04T03:58:16;0.60;;;0.60;;
11933;SDS011;6026;48.784;9.198;2024-02-04T04:00:42;0.30;;;0.30;;
11933;SDS011;6026;48.784;9.198;2024-02-04T04:03:07;0.30;;;0.30;;
11933;SDS011;6026;48.784;9.198;2024-02-04T04:05:33;0.53;;;0.53;;
11933;SDS011;6026;48.784;9.198;2024-02-04T04:07:58;0.20;;;0.20;;
11933;SDS011;6026;48.784;9.198;2024-02-04T04:10:24;0.60;;;0.60;;
11933;SDS011;6026;48.784;9.198;2024-02-04T04:12:49;0.40;;;0.40;;
11933;SDS011;6026;48.784;9.198;2024-02-04T04:15:16;0.30;;;0.30;;
11933;SDS011;6026;48.784;9.198;2024-02-04T04:17:41;0.30;;;0.30;;
11933;SDS011;6026;48.784;9.198;2024-02-04T04:20:07;0.40;;;0.40;;
11933;SDS011;6026;48.784;9.198;2024-02-04T04:22:33;0.40;;;0.40;;
11933;SDS011;6026;48.784;9.198;2024-02-04T04:24:58;0.53;;;0.53;;
11933;SDS011;6026;48.784;9.198;2024-02-04T04:27:24;0.23;;;0.23;;
11933;SDS011;6026;48.784;9.198;2024-02-04T04:29:49;0.40;;;0.40;;
11933;SDS011;6026;48.784;9.198;2024-02-04T04:32:15;0.50;;;0.50;;
11933;SDS011;6026;48.784;9.198;2024-02-04T04:34:41;0.50;;;0.50;;
11933;SDS011;6026;48.784;9.198;2024-02-04T04:37:06;0.30;;;0.30;;
11933;SDS011;6026;48.784;9.198;2024-02-04T04:39:32;0.30;;;0.30;;
11933;SDS011;6026;48.784;9.198;2024-02-04T04:41:57;0.40;;;0.40;;
11933;SDS011;6026;48.784;9.198;2024-02-04T04:44:23;0.40;;;0.40;;
11933;SDS011;6026;48.784;9.198;2024-02-04T04:46:48;0.30;;;0.30;;
11933;SDS011;6026;48.784;9.198;2024-02-04T04:49:14;0.47;;;0.47;;
11933;SDS011;6026;48.784;9.198;2024-02-04T04:51:43;0.30;;;0.30;;
11933;SDS011;6026;48.784;9.198;2024-02-04T04:54:12;0.30;;;0.30;;
11933;SDS011;6026;48.784;9.198;2024-02-04T04:56:38;0.40;;;0.40;;
11933;SDS011;6026;48.784;9.198;2024-02-04T04:59:05;0.30;;;0.30;;
11933;SDS011;6026;48.784;9.198;2024-02-04T05:01:34;0.60;;;0.60;;
11933;SDS011;6026;48.784;9.198;2024-02-04T05:04:00;0.50;;;0.50;;
11933;SDS011;6026;48.784;9.198;2024-02-04T05:06:26;0.30;;;0.30;;
11933;SDS011;6026;48.784;9.198;2024-02-04T05:08:51;0.50;;;0.50;;
11933;SDS011;6026;48.784;9.198;2024-02-04T05:11:17;0.43;;;0.43;;
11933;SDS011;6026;48.784;9.198;2024-02-04T05:13:42;0.30;;;0.30;;
11933;SDS011;6026;48.784;9.198;2024-02-04T05:16:08;0.20;;;0.20;;
11933;SDS011;6026;48.784;9.198;2024-02-04T05:18:34;0.47;;;0.47;;
11933;SDS011;6026;48.784;9.198;2024-02-04T05:21:00;0.50;;;0.50;;
11933;SDS011;6026;48.784;9.198;2024-02-04T05:23:27;0.30;;;0.30;;
11933;SDS011;6026;48.784;9.198;2024-02-04T05:25:53;0.40;;;0.40;;
11933;SDS011;6026;48.784;9.198;2024-02-04T05:28:18;0.40;;;0.40;;
11933;SDS011;6026;48.784;9.198;2024-02-04T05:30:44;0.40;;;0.40;;
11933;SDS011;6026;48.784;9.198;2024-02-04T05:33:13;0.40;;;0.40;;
11933;SDS011;6026;48.784;9.198;2024-02-04T05:35:39;0.20;;;0.20;;
11933;SDS011;6026;48.784;9.198;2024-02-04T05:38:07;0.50;;;0.50;;
11933;SDS011;6026;48.784;9.198;2024-02-04T05:40:33;0.27;;;0.27;;
11933;SDS011;6026;48.784;9.198;2024-02-04T05:42:59;0.27;;;0.27;;
11933;SDS011;6026;48.784;9.198;2024-02-04T05:45:24;0.50;;;0.50;;
11933;SDS011;6026;48.784;9.198;2024-02-04T05:47:50;0.57;;;0.57;;
11933;SDS011;6026;48.784;9.198;2024-02-04T05:50:16;0.40;;;0.40;;
11933;SDS011;6026;48.784;9.198;2024-02-04T05:52:41;0.40;;;0.40;;
11933;SDS011;6026;48.784;9.198;2024-02-04T05:55:07;0.60;;;0.60;;
11933;SDS011;6026;48.784;9.198;2024-02-04T05:57:34;0.37;;;0.37;;
11933;SDS011;6026;48.784;9.198;2024-02-04T06:00:00;0.40;;;0.40;;
11933;SDS011;6026;48.784;9.198;2024-02-04T06:02:26;0.33;;;0.33;;
11933;SDS011;6026;48.784;9.198;2024-02-04T06:04:51;0.40;;;0.40;;
11933;SDS011;6026;48.784;9.198;2024-02-04T06:07:17;0.30;;;0.30;;
11933;SDS011;6026;48.784;9.198;2024-02-04T06:09:42;0.40;;;0.40;;
11933;SDS011;6026;48.784;9.198;2024-02-04T06:12:08;0.40;;;0.40;;
11933;SDS011;6026;48.784;9.198;2024-02-04T06:14:33;0.40;;;0.40;;
11933;SDS011;6026;48.784;9.198;2024-02-04T06:17:04;0.37;;;0.37;;
11933;SDS011;6026;48.784;9.198;2024-02-04T06:19:33;0.47;;;0.47;;
11933;SDS011;6026;48.784;9.198;2024-02-04T06:22:01;0.30;;;0.30;;
11933;SDS011;6026;48.784;9.198;2024-02-04T06:24:27;0.50;;;0.50;;
11933;SDS011;6026;48.784;9.198;2024-02-04T06:26:52;0.40;;;0.40;;
11933;SDS011;6026;48.784;9.198;2024-02-04T06:29:18;0.40;;;0.40;;
11933;SDS011;6026;48.784;9.198;2024-02-04T06:31:44;0.40;;;0.40;;
11933;SDS011;6026;48.784;9.198;2024-02-04T06:34:10;0.53;;;0.53;;
11933;SDS011;6026;48.784;9.198;2024-02-04T06:36:36;0.17;;;0.17;;
11933;SDS011;6026;48.784;9.198;2024-02-04T06:39:01;0.30;;;0.30;;
11933;SDS011;6026;48.784;9.198;2024-02-04T06:41:27;0.50;;;0.50;;
11933;SDS011;6026;48.784;9.198;2024-02-04T06:43:52;0.30;;;0.30;;
11933;SDS011;6026;48.784;9.198;2024-02-04T06:46:27;0.40;;;0.40;;
11933;SDS011;6026;48.784;9.198;2024-02-04T06:48:53;0.30;;;0.30;;
11933;SDS011;6026;48.784;9.198;2024-02-04T06:51:19;0.40;;;0.40;;
11933;SDS011;6026;48.784;9.198;2024-02-04T06:53:45;0.37;;;0.37;;
11933;SDS011;6026;48.784;9.198;2024-02-04T06:56:10;0.80;;;0.80;;
11933;SDS011;6026;48.784;9.198;2024-02-04T06:58:42;0.30;;;0.30;;
11933;SDS011;6026;48.784;9.198;2024-02-04T07:01:08;0.20;;;0.20;;
11933;SDS011;6026;48.784;9.198;2024-02-04T07:03:35;0.30;;;0.30;;
11933;SDS011;6026;48.784;9.198;2024-02-04T07:06:00;0.50;;;0.50;;
11933;SDS011;6026;48.784;9.198;2024-02-04T07:08:26;0.20;;;0.20;;
11933;SDS011;6026;48.784;9.198;2024-02-04T07:10:52;0.20;;;0.20;;
11933;SDS011;6026;48.784;9.198;2024-02-04T07:13:18;0.30;;;0.30;;
11933;SDS011;6026;48.784;9.198;2024-02-04T07:15:44;0.40;;;0.40;;
11933;SDS011;6026;48.784;9.198;2024-02-04T07:18:10;0.40;;;0.40;;
11933;SDS011;6026;48.784;9.198;2024-02-04T07:20:36;0.20;;;0.20;;
11933;SDS011;6026;48.784;9.198;2024-02-04T07:23:02;0.30;;;0.30;;
11933;SDS011;6026;48.784;9.198;2024-02-04T07:25:28;0.40;;;0.40;;
11933;SDS011;6026;48.784;9.198;2024-02-04T07:27:54;0.23;;;0.23;;
11933;SDS011;6026;48.784;9.198;2024-02-04T07:30:19;0.30;;;0.30;;
11933;SDS011;6026;48.784;9.198;2024-02-04T07:32:46;0.20;;;0.20;;
11933;SDS011;6026;48.784;9.198;2024-02-04T07:35:11;0.50;;;0.50;;
11933;SDS011;6026;48.784;9.198;2024-02-04T07:37:37;0.30;;;0.30;;
11933;SDS011;6026;48.784;9.198;2024-02-04T07:40:03;0.33;;;0.33;;
11933;SDS011;6026;48.784;9.198;2024-02-04T07:42:31;0.50;;;0.50;;
11933;SDS011;6026;48.784;9.198;2024-02-04T07:44:57;0.30;;;0.30;;
11933;SDS011;6026;48.784;9.198;2024-02-04T07:47:23;0.30;;;0.30;;
11933;SDS011;6026;48.784;9.198;2024-02-04T07:49:49;0.30;;;0.30;;
11933;SDS011;6026;48.784;9.198;2024-02-04T07:52:14;0.50;;;0.50;;
11933;SDS011;6026;48.784;9.198;2024-02-04T07:54:40;0.30;;;0.30;;
11933;SDS011;6026;48.784;9.198;2024-02-04T07:57:06;0.40;;;0.40;;
11933;SDS011;6026;48.784;9.198;2024-02-04T07:59:31;0.40;;;0.40;;
11933;SDS011;6026;48.784;9.198;2024-02-04T08:01:58;0.40;;;0.40;;
11933;SDS011;6026;48.784;9.198;2024-02-04T08:04:23;0.60;;;0.60;;
11933;SDS011;6026;48.784;9.198;2024-02-04T08:06:49;0.40;;;0.40;;
11933;SDS011;6026;48.784;9.198;2024-02-04T08:09:14;0.40;;;0.40;;
11933;SDS011;6026;48.784;9.198;2024-02-04T08:11:40;0.50;;;0.50;;
11933;SDS011;6026;48.784;9.198;2024-02-04T08:14:06;0.40;;;0.40;;
11933;SDS011;6026;48.784;9.198;2024-02-04T08:16:32;0.50;;;0.50;;
11933;SDS011;6026;48.784;9.198;2024-02-04T08:18:58;0.50;;;0.50;;
11933;SDS011;6026;48.784;9.198;2024-02-04T08:21:23;0.23;;;0.23;;
11933;SDS011;6026;48.784;9.198;2024-02-04T08:23:49;0.30;;;0.30;;
11933;SDS011;6026;48.784;9.198;2024-02-04T08:26:14;0.50;;;0.50;;
11933;SDS011;6026;48.784;9.198;2024-02-04T08:28:40;0.30;;;0.30;;
11933;SDS011;6026;48.784;9.198;2024-02-04T08:31:06;0.20;;;0.20;;
11933;SDS011;6026;48.784;9.198;2024-02-04T08:33:31;0.50;;;0.50;;
11933;SDS011;6026;48.784;9.198;2024-02-04T08:35:57;0.60;;;0.60;;
11933;SDS011;6026;48.784;9.198;2024-02-04T08:38:22;0.30;;;0.30;;
11933;SDS011;6026;48.784;9.198;2024-02-04T08:40:48;0.50;;;0.50;;
11933;SDS011;6026;48.784;9.198;2024-02-04T08:43:13;0.50;;;0.50;;
11933;SDS011;6026;48.784;9.198;2024-02-04T08:45:39;0.50;;;0.50;;
11933;SDS011;6026;48.784;9.198;2024-02-04T08:48:05;0.30;;;0.30;;
11933;SDS011;6026;48.784;9.198;2024-02-04T08:50:30;0.57;;;0.57;;
11933;SDS011;6026;48.784;9.198;2024-02-04T08:52:56;0.50;;;0.50;;
11933;SDS011;6026;48.784;9.198;2024-02-04T08:55:22;0.40;;;0.40;;
11933;SDS011;6026;48.784;9.198;2024-02-04T08:57:47;0.40;;;0.40;;
11933;SDS011;6026;48.784;9.198;2024-02-04T09:00:13;0.30;;;0.30;;
11933;SDS011;6026;48.784;9.198;2024-02-04T09:02:40;0.40;;;0.40;;
11933;SDS011;6026;48.784;9.198;2024-02-04T09:05:06;0.40;;;0.40;;
11933;SDS011;6026;48.784;9.198;2024-02-04T09:07:32;0.60;;;0.60;;
11933;SDS011;6026;48.784;9.198;2024-02-04T09:09:57;0.60;;;0.60;;
11933;SDS011;6026;48.784;9.198;2024-02-04T09:12:23;0.43;;;0.43;;
11933;SDS011;6026;48.784;9.198;2024-02-04T09:14:49;0.50;;;0.50;;
11933;SDS011;6026;48.784;9.198;2024-02-04T09:17:14;0.60;;;0.60;;
11933;SDS011;6026;48.784;9.198;2024-02-04T09:19:40;0.80;;;0.80;;
11933;SDS011;6026;48.784;9.198;2024-02-04T09:22:05;0.37;;;0.37;;
11933;SDS011;6026;48.784;9.198;2024-02-04T09:24:31;0.50;;;0.50;;
11933;SDS011;6026;48.784;9.198;2024-02-04T09:26:57;0.40;;;0.40;;
11933;SDS011;6026;48.784;9.198;2024-02-04T09:29:23;0.40;;;0.40;;
11933;SDS011;6026;48.784;9.198;2024-02-04T09:31:48;0.53;;;0.53;;
11933;SDS011;6026;48.784;9.198;2024-02-04T09:34:18;0.60;;;0.60;;
11933;SDS011;6026;48.784;9.198;2024-02-04T09:36:44;0.50;;;0.50;;
11933;SDS011;6026;48.784;9.198;2024-02-04T09:39:10;0.53;;;0.53;;
11933;SDS011;6026;48.784;9.198;2024-02-04T09:41:35;0.50;;;0.50;;
11933;SDS011;6026;48.784;9.198;2024-02-04T09:44:01;0.60;;;0.60;;
11933;SDS011;6026;48.784;9.198;2024-02-04T09:46:28;0.50;;;0.50;;
11933;SDS011;6026;48.784;9.198;2024-02-04T09:48:55;0.60;;;0.60;;
11933;SDS011;6026;48.784;9.198;2024-02-04T09:51:21;0.70;;;0.70;;
11933;SDS011;6026;48.784;9.198;2024-02-04T09:53:50;0.77;;;0.77;;
11933;SDS011;6026;48.784;9.198;2024-02-04T09:56:18;0.60;;;0.60;;
11933;SDS011;6026;48.784;9.198;2024-02-04T09:58:46;0.60;;;0.60;;
11933;SDS011;6026;48.784;9.198;2024-02-04T10:01:12;0.60;;;0.60;;
11933;SDS011;6026;48.784;9.198;2024-02-04T10:03:40;0.40;;;0.40;;
11933;SDS011;6026;48.784;9.198;2024-02-04T10:06:06;0.70;;;0.70;;
11933;SDS011;6026;48.784;9.198;2024-02-04T10:08:32;0.70;;;0.70;;
11933;SDS011;6026;48.784;9.198;2024-02-04T10:10:58;0.80;;;0.80;;
11933;SDS011;6026;48.784;9.198;2024-02-04T10:13:24;0.70;;;0.70;;
11933;SDS011;6026;48.784;9.198;2024-02-04T10:15:50;0.60;;;0.60;;
11933;SDS011;6026;48.784;9.198;2024-02-04T10:18:17;0.60;;;0.60;;
11933;SDS011;6026;48.784;9.198;2024-02-04T10:20:43;0.60;;;0.60;;
11933;SDS011;6026;48.784;9.198;2024-02-04T10:23:08;0.80;;;0.80;;
11933;SDS011;6026;48.784;9.198;2024-02-04T10:25:34;0.70;;;0.70;;
11933;SDS011;6026;48.784;9.198;2024-02-04T10:28:00;0.70;;;0.70;;
11933;SDS011;6026;48.784;9.198;2024-02-04T10:30:26;0.70;;;0.70;;
11933;SDS011;6026;48.784;9.198;2024-02-04T10:32:52;0.70;;;0.70;;
11933;SDS011;6026;48.784;9.198;2024-02-04T10:35:21;0.70;;;0.70;;
11933;SDS011;6026;48.784;9.198;2024-02-04T10:37:48;0.70;;;0.70;;
11933;SDS011;6026;48.784;9.198;2024-02-04T10:40:15;0.80;;;0.80;;
11933;SDS011;6026;48.784;9.198;2024-02-04T10:42:42;0.77;;;0.77;;
11933;SDS011;6026;48.784;9.198;2024-02-04T10:45:08;0.93;;;0.93;;
11933;SDS011;6026;48.784;9.198;2024-02-04T10:47:36;0.80;;;0.80;;
11933;SDS011;6026;48.784;9.198;2024-02-04T10:50:03;0.80;;;0.80;;
11933;SDS011;6026;48.784;9.198;2024-02-04T10:52:31;0.80;;;0.80;;
11933;SDS011;6026;48.784;9.198;2024-02-04T10:55:07;1.10;;;1.10;;
11933;SDS011;6026;48.784;9.198;2024-02-04T10:57:34;0.90;;;0.90;;
11933;SDS011;6026;48.784;9.198;2024-02-04T11:00:01;0.80;;;0.80;;
11933;SDS011;6026;48.784;9.198;2024-02-04T11:02:33;0.83;;;0.83;;
11933;SDS011;6026;48.784;9.198;2024-02-04T11:04:59;0.83;;;0.83;;
11933;SDS011;6026;48.784;9.198;2024-02-04T11:07:26;1.00;;;1.00;;
11933;SDS011;6026;48.784;9.198;2024-02-04T11:09:53;0.70;;;0.70;;
11933;SDS011;6026;48.784;9.198;2024-02-04T11:12:19;0.80;;;0.80;;
11933;SDS011;6026;48.784;9.198;2024-02-04T11:14:48;0.90;;;0.90;;
11933;SDS011;6026;48.784;9.198;2024-02-04T11:17:37;0.80;;;0.80;;
11933;SDS011;6026;48.784;9.198;2024-02-04T11:20:23;0.80;;;0.80;;
11933;SDS011;6026;48.784;9.198;2024-02-04T11:23:21;0.73;;;0.73;;
11933;SDS011;6026;48.784;9.198;2024-02-04T11:25:52;0.80;;;0.80;;
11933;SDS011;6026;48.784;9.198;2024-02-04T11:28:20;0.90;;;0.90;;
11933;SDS011;6026;48.784;9.198;2024-02-04T11:30:47;0.80;;;0.80;;
11933;SDS011;6026;48.784;9.198;2024-02-04T11:33:17;0.80;;;0.80;;
11933;SDS011;6026;48.784;9.198;2024-02-04T11:35:44;0.80;;;0.80;;
11933;SDS011;6026;48.784;9.198;2024-02-04T11:38:10;0.87;;;0.87;;
11933;SDS011;6026;48.784;9.198;2024-02-04T11:40:39;0.80;;;0.80;;
11933;SDS011;6026;48.784;9.198;2024-02-04T11:43:06;0.80;;;0.80;;
11933;SDS011;6026;48.784;9.198;2024-02-04T11:45:41;0.77;;;0.77;;
11933;SDS011;6026;48.784;9.198;2024-02-04T11:48:08;0.90;;;0.90;;
11933;SDS011;6026;48.784;9.198;2024-02-04T11:50:37;0.70;;;0.70;;
11933;SDS011;6026;48.784;9.198;2024-02-04T11:55:34;0.80;;;0.80;;
11933;SDS011;6026;48.784;9.198;2024-02-04T11:58:00;0.80;;;0.80;;
11933;SDS011;6026;48.784;9.198;2024-02-04T12:00:27;1.00;;;1.00;;
11933;SDS011;6026;48.784;9.198;2024-02-04T12:05:28;0.90;;;0.90;;
11933;SDS011;6026;48.784;9.198;2024-02-04T12:07:59;0.90;;;0.90;;
11933;SDS011;6026;48.784;9.198;2024-02-04T12:10:29;0.80;;;0.80;;
11933;SDS011;6026;48.784;9.198;2024-02-04T12:12:56;0.70;;;0.70;;
11933;SDS011;6026;48.784;9.198;2024-02-04T12:15:23;0.90;;;0.90;;
11933;SDS011;6026;48.784;9.198;2024-02-04T12:17:50;0.77;;;0.77;;
11933;SDS011;6026;48.784;9.198;2024-02-04T12:20:16;0.80;;;0.80;;
11933;SDS011;6026;48.784;9.198;2024-02-04T12:22:41;0.80;;;0.80;;
11933;SDS011;6026;48.784;9.198;2024-02-04T12:25:07;0.70;;;0.70;;
11933;SDS011;6026;48.784;9.198;2024-02-04T12:27:34;0.90;;;0.90;;
11933;SDS011;6026;48.784;9.198;2024-02-04T12:30:00;0.80;;;0.80;;
11933;SDS011;6026;48.784;9.198;2024-02-04T12:32:26;0.80;;;0.80;;
11933;SDS011;6026;48.784;9.198;2024-02-04T12:34:51;0.80;;;0.80;;
11933;SDS011;6026;48.784;9.198;2024-02-04T12:37:19;0.60;;;0.60;;
11933;SDS011;6026;48.784;9.198;2024-02-04T12:39:45;0.70;;;0.70;;
11933;SDS011;6026;48.784;9.198;2024-02-04T12:42:17;0.70;;;0.70;;
11933;SDS011;6026;48.784;9.198;2024-02-04T12:44:44;0.80;;;0.80;;
11933;SDS011;6026;48.784;9.198;2024-02-04T12:47:11;0.77;;;0.77;;
11933;SDS011;6026;48.784;9.198;2024-02-04T12:49:37;0.80;;;0.80;;
11933;SDS011;6026;48.784;9.198;2024-02-04T12:52:03;0.80;;;0.80;;
11933;SDS011;6026;48.784;9.198;2024-02-04T12:54:30;0.80;;;0.80;;
11933;SDS011;6026;48.784;9.198;2024-02-04T12:56:56;0.80;;;0.80;;
11933;SDS011;6026;48.784;9.198;2024-02-04T12:59:31;0.80;;;0.80;;
11933;SDS011;6026;48.784;9.198;2024-02-04T13:02:01;0.80;;;0.80;;
11933;SDS011;6026;48.784;9.198;2024-02-04T13:04:37;0.83;;;0.83;;
11933;SDS011;6026;48.784;9.198;2024-02-04T13:07:14;0.83;;;0.83;;
11933;SDS011;6026;48.784;9.198;2024-02-04T13:09:41;1.00;;;1.00;;
11933;SDS011;6026;48.784;9.198;2024-02-04T13:12:08;0.73;;;0.73;;
11933;SDS011;6026;48.784;9.198;2024-02-04T13:14:38;0.87;;;0.87;;
11933;SDS011;6026;48.784;9.198;2024-02-04T13:17:04;0.80;;;0.80;;
11933;SDS011;6026;48.784;9.198;2024-02-04T13:19:33;0.90;;;0.90;;
11933;SDS011;6026;48.784;9.198;2024-02-04T13:21:59;0.80;;;0.80;;
11933;SDS011;6026;48.784;9.198;2024-02-04T13:24:25;0.80;;;0.80;;
11933;SDS011;6026;48.784;9.198;2024-02-04T13:26:51;0.90;;;0.90;;
11933;SDS011;6026;48.784;9.198;2024-02-04T13:29:16;0.90;;;0.90;;
11933;SDS011;6026;48.784;9.198;2024-02-04T13:31:42;0.80;;;0.80;;
11933;SDS011;6026;48.784;9.198;2024-02-04T13:34:07;0.80;;;0.80;;
11933;SDS011;6026;48.784;9.198;2024-02-04T13:36:33;0.80;;;0.80;;
11933;SDS011;6026;48.784;9.198;2024-02-04T13:38:59;0.80;;;0.80;;
11933;SDS011;6026;48.784;9.198;2024-02-04T13:41:24;0.80;;;0.80;;
11933;SDS011;6026;48.784;9.198;2024-02-04T13:43:50;0.80;;;0.80;;
11933;SDS011;6026;48.784;9.198;2024-02-04T13:46:16;0.80;;;0.80;;
11933;SDS011;6026;48.784;9.198;2024-02-04T13:48:41;0.87;;;0.87;;
11933;SDS011;6026;48.784;9.198;2024-02-04T13:51:07;0.90;;;0.90;;
11933;SDS011;6026;48.784;9.198;2024-02-04T13:53:33;0.90;;;0.90;;
11933;SDS011;6026;48.784;9.198;2024-02-04T13:56:00;0.80;;;0.80;;
11933;SDS011;6026;48.784;9.198;2024-02-04T13:58:26;0.70;;;0.70;;
11933;SDS011;6026;48.784;9.198;2024-02-04T14:00:52;0.80;;;0.80;;
11933;SDS011;6026;48.784;9.198;2024-02-04T14:03:17;0.77;;;0.77;;
11933;SDS011;6026;48.784;9.198;2024-02-04T14:05:43;0.80;;;0.80;;
11933;SDS011;6026;48.784;9.198;2024-02-04T14:08:09;0.80;;;0.80;;
11933;SDS011;6026;48.784;9.198;2024-02-04T14:10:35;0.80;;;0.80;;
11933;SDS011;6026;48.784;9.198;2024-02-04T14:13:01;0.80;;;0.80;;
11933;SDS011;6026;48.784;9.198;2024-02-04T14:15:27;0.77;;;0.77;;
11933;SDS011;6026;48.784;9.198;2024-02-04T14:17:52;0.70;;;0.70;;
11933;SDS011;6026;48.784;9.198;2024-02-04T14:20:19;0.80;;;0.80;;
11933;SDS011;6026;48.784;9.198;2024-02-04T14:22:44;0.80;;;0.80;;
11933;SDS011;6026;48.784;9.198;2024-02-04T14:25:10;0.70;;;0.70;;
11933;SDS011;6026;48.784;9.198;2024-02-04T14:27:36;0.77;;;0.77;;
11933;SDS011;6026;48.784;9.198;2024-02-04T14:30:02;0.77;;;0.77;;
11933;SDS011;6026;48.784;9.198;2024-02-04T14:32:28;0.73;;;0.73;;
11933;SDS011;6026;48.784;9.198;2024-02-04T14:34:53;0.60;;;0.60;;
11933;SDS011;6026;48.784;9.198;2024-02-04T14:37:19;0.70;;;0.70;;
11933;SDS011;6026;48.784;9.198;2024-02-04T14:39:45;0.80;;;0.80;;
11933;SDS011;6026;48.784;9.198;2024-02-04T14:42:11;0.50;;;0.50;;
11933;SDS011;6026;48.784;9.198;2024-02-04T14:44:36;0.57;;;0.57;;
11933;SDS011;6026;48.784;9.198;2024-02-04T14:47:02;0.57;;;0.57;;
11933;SDS011;6026;48.784;9.198;2024-02-04T14:49:28;0.63;;;0.63;;
11933;SDS011;6026;48.784;9.198;2024-02-04T14:51:53;0.70;;;0.70;;
11933;SDS011;6026;48.784;9.198;2024-02-04T14:54:19;0.70;;;0.70;;
11933;SDS011;6026;48.784;9.198;2024-02-04T14:56:45;0.80;;;0.80;;
11933;SDS011;6026;48.784;9.198;2024-02-04T14:59:11;0.50;;;0.50;;
11933;SDS011;6026;48.784;9.198;2024-02-04T15:01:38;0.50;;;0.50;;
11933;SDS011;6026;48.784;9.198;2024-02-04T15:04:04;0.70;;;0.70;;
11933;SDS011;6026;48.784;9.198;2024-02-04T15:06:30;0.60;;;0.60;;